createdAt,value
2023-02-17T00:00:19.855Z,9.68
2023-02-17T00:02:46.680Z,9.15
2023-02-17T00:05:14.645Z,8.52
2023-02-17T00:07:41.254Z,10.23
2023-02-17T00:10:08.782Z,10.02
2023-02-17T00:12:36.378Z,9.43
2023-02-17T00:15:03.903Z,9.93
2023-02-17T00:17:30.628Z,9.65
2023-02-17T00:19:57.352Z,10.05
2023-02-17T00:22:25.413Z,10.10
2023-02-17T00:24:51.979Z,10.30
2023-02-17T00:27:18.646Z,10.35
2023-02-17T00:29:45.701Z,10.25
2023-02-17T00:32:12.451Z,9.27
2023-02-17T00:34:39.127Z,9.35
2023-02-17T00:37:06.922Z,9.38
2023-02-17T00:39:34.851Z,11.07
2023-02-17T00:42:01.501Z,10.30
2023-02-17T00:44:29.574Z,10.00
2023-02-17T00:46:56.237Z,9.95
2023-02-17T00:49:25.017Z,9.75
2023-02-17T00:51:52.544Z,10.25
2023-02-17T00:54:19.645Z,9.88
2023-02-17T00:56:48.003Z,11.00
2023-02-17T00:59:14.641Z,10.10
2023-02-17T01:01:41.302Z,9.23
2023-02-17T01:04:10.104Z,10.20
2023-02-17T01:06:38.696Z,9.25
2023-02-17T01:09:08.830Z,9.23
2023-02-17T01:11:36.188Z,9.43
2023-02-17T01:14:05.853Z,10.10
2023-02-17T01:16:45.057Z,10.10
2023-02-17T01:19:13.837Z,10.18
2023-02-17T01:21:41.097Z,10.43
2023-02-17T01:24:11.849Z,10.15
2023-02-17T01:26:41.051Z,10.50
2023-02-17T01:29:09.012Z,9.60
2023-02-17T01:31:35.988Z,10.52
2023-02-17T01:34:04.220Z,9.77
2023-02-17T01:36:31.292Z,9.88
2023-02-17T01:38:58.722Z,8.80
2023-02-17T01:41:27.443Z,8.82
2023-02-17T01:44:06.073Z,9.40
2023-02-17T01:46:34.733Z,8.82
2023-02-17T01:49:03.929Z,9.57
2023-02-17T01:51:34.520Z,8.98
2023-02-17T01:54:06.538Z,8.35
2023-02-17T01:56:37.371Z,9.52
2023-02-17T01:59:07.561Z,8.70
2023-02-17T02:01:35.951Z,9.75
2023-02-17T02:04:04.722Z,9.02
2023-02-17T02:06:35.016Z,9.85
2023-02-17T02:09:05.371Z,10.35
2023-02-17T02:11:32.835Z,8.95
2023-02-17T02:14:00.712Z,9.40
2023-02-17T02:16:35.989Z,9.23
2023-02-17T02:19:19.830Z,9.50
2023-02-17T02:22:18.204Z,9.68
2023-02-17T02:24:59.302Z,8.88
2023-02-17T02:27:41.919Z,9.63
2023-02-17T02:30:24.358Z,8.65
2023-02-17T02:32:59.729Z,8.85
2023-02-17T02:35:34.835Z,9.10
2023-02-17T02:38:07.158Z,8.85
2023-02-17T02:40:39.408Z,9.30
2023-02-17T02:43:06.995Z,8.73
2023-02-17T02:45:34.642Z,8.25
2023-02-17T02:48:03.065Z,7.82
2023-02-17T02:50:45.765Z,7.78
2023-02-17T02:55:53.991Z,8.15
2023-02-17T02:58:25.584Z,8.73
2023-02-17T03:01:03.258Z,8.15
2023-02-17T03:03:40.038Z,7.95
2023-02-17T03:06:15.235Z,7.22
2023-02-17T03:08:48.252Z,7.10
2023-02-17T03:11:16.724Z,6.95
2023-02-17T03:13:43.314Z,7.32
2023-02-17T03:16:13.812Z,6.93
2023-02-17T03:18:42.078Z,7.68
2023-02-17T03:21:15.239Z,7.25
2023-02-17T03:23:42.795Z,7.20
2023-02-17T03:26:09.422Z,7.40
2023-02-17T03:28:36.110Z,6.32
2023-02-17T03:31:02.839Z,7.05
2023-02-17T03:33:29.521Z,7.05
2023-02-17T03:35:57.403Z,7.10
2023-02-17T03:38:24.215Z,7.38
2023-02-17T03:40:50.730Z,6.25
2023-02-17T03:43:18.067Z,6.28
2023-02-17T03:45:45.066Z,6.13
2023-02-17T03:48:11.651Z,6.38
2023-02-17T03:50:38.184Z,7.55
2023-02-17T03:53:06.196Z,6.15
2023-02-17T03:55:32.759Z,5.65
2023-02-17T03:57:59.350Z,6.25
2023-02-17T04:00:25.880Z,6.13
2023-02-17T04:02:52.491Z,7.05
2023-02-17T04:05:19.006Z,6.13
2023-02-17T04:07:45.742Z,6.20
2023-02-17T04:10:14.031Z,5.82
2023-02-17T04:12:40.889Z,5.57
2023-02-17T04:15:08.529Z,5.70
2023-02-17T04:17:36.325Z,5.90
2023-02-17T04:20:03.189Z,5.13
2023-02-17T04:22:29.770Z,5.80
2023-02-17T04:24:56.541Z,5.53
2023-02-17T04:27:24.538Z,5.00
2023-02-17T04:29:51.219Z,5.13
2023-02-17T04:32:17.803Z,4.85
2023-02-17T04:34:44.291Z,4.75
2023-02-17T04:37:10.848Z,6.15
2023-02-17T04:39:37.340Z,4.10
2023-02-17T04:42:04.077Z,5.53
2023-02-17T04:44:32.430Z,4.70
2023-02-17T04:46:59.006Z,4.93
2023-02-17T04:49:25.525Z,3.97
2023-02-17T04:51:52.118Z,4.40
2023-02-17T04:54:18.661Z,4.32
2023-02-17T04:56:45.220Z,4.90
2023-02-17T04:59:11.785Z,4.57
2023-02-17T05:01:39.745Z,4.10
2023-02-17T05:04:06.290Z,3.58
2023-02-17T05:06:32.942Z,4.45
2023-02-17T05:08:59.496Z,4.43
2023-02-17T05:11:26.088Z,4.03
2023-02-17T05:13:52.617Z,4.78
2023-02-17T05:16:19.269Z,3.92
2023-02-17T05:18:47.175Z,4.57
2023-02-17T05:21:13.881Z,4.60
2023-02-17T05:23:40.693Z,4.60
2023-02-17T05:26:08.051Z,4.80
2023-02-17T05:28:35.521Z,4.45
2023-02-17T05:31:02.299Z,4.45
2023-02-17T05:33:28.899Z,4.47
2023-02-17T05:36:01.807Z,4.28
2023-02-17T05:38:28.401Z,4.25
2023-02-17T05:40:54.996Z,4.47
2023-02-17T05:43:21.665Z,4.32
2023-02-17T05:45:48.174Z,4.78
2023-02-17T05:48:14.957Z,4.70
2023-02-17T05:50:41.520Z,4.20
2023-02-17T05:53:09.771Z,4.50
2023-02-17T05:55:36.451Z,4.15
2023-02-17T05:58:03.101Z,4.05
2023-02-17T06:00:29.740Z,4.93
2023-02-17T06:02:56.493Z,4.85
2023-02-17T06:05:23.053Z,4.20
2023-02-17T06:07:49.678Z,4.78
2023-02-17T06:10:17.703Z,4.55
2023-02-17T06:12:44.299Z,4.50
2023-02-17T06:15:11.099Z,4.20
2023-02-17T06:17:38.143Z,4.10
2023-02-17T06:20:05.893Z,4.88
2023-02-17T06:22:32.486Z,4.10
2023-02-17T06:24:59.033Z,4.35
2023-02-17T06:27:27.354Z,4.00
2023-02-17T06:29:53.838Z,4.85
2023-02-17T06:32:20.439Z,4.30
2023-02-17T06:34:46.963Z,4.20
2023-02-17T06:37:13.580Z,4.40
2023-02-17T06:39:40.088Z,4.70
2023-02-17T06:42:06.651Z,4.00
2023-02-17T06:44:34.541Z,4.20
2023-02-17T06:47:01.228Z,4.25
2023-02-17T06:49:27.733Z,4.57
2023-02-17T06:51:54.317Z,4.38
2023-02-17T06:54:22.127Z,4.85
2023-02-17T06:56:48.735Z,4.00
2023-02-17T06:59:15.257Z,4.25
2023-02-17T07:01:43.438Z,4.20
2023-02-17T07:04:10.003Z,3.95
2023-02-17T07:06:36.625Z,4.15
2023-02-17T07:09:03.598Z,4.70
2023-02-17T07:11:30.262Z,4.70
2023-02-17T07:13:57.044Z,4.57
2023-02-17T07:16:23.743Z,4.88
2023-02-17T07:18:51.692Z,4.30
2023-02-17T07:21:18.348Z,5.05
2023-02-17T07:23:44.856Z,5.07
2023-02-17T07:26:12.199Z,5.07
2023-02-17T07:28:40.406Z,5.72
2023-02-17T07:31:07.822Z,4.75
2023-02-17T07:33:35.330Z,4.88
2023-02-17T07:36:07.559Z,5.10
2023-02-17T07:38:34.363Z,5.03
2023-02-17T07:41:04.799Z,5.55
2023-02-17T07:43:31.385Z,4.95
2023-02-17T07:45:59.368Z,5.07
2023-02-17T07:48:26.109Z,5.50
2023-02-17T07:50:52.708Z,6.00
2023-02-17T07:53:20.650Z,8.93
2023-02-17T07:55:47.233Z,8.85
2023-02-17T07:58:14.047Z,7.32
2023-02-17T08:00:40.542Z,7.03
2023-02-17T08:03:07.180Z,5.82
2023-02-17T08:05:33.684Z,5.07
2023-02-17T08:08:00.216Z,4.07
2023-02-17T08:10:28.125Z,3.90
2023-02-17T08:12:54.705Z,3.50
2023-02-17T08:15:21.393Z,3.85
2023-02-17T08:17:50.890Z,4.13
2023-02-17T08:20:17.866Z,4.47
2023-02-17T08:22:44.468Z,4.50
2023-02-17T08:25:10.988Z,4.43
2023-02-17T08:27:38.926Z,4.40
2023-02-17T08:30:07.025Z,4.10
2023-02-17T08:32:33.681Z,4.45
2023-02-17T08:35:00.359Z,4.07
2023-02-17T08:37:27.108Z,5.30
2023-02-17T08:39:53.910Z,4.70
2023-02-17T08:42:20.519Z,5.40
2023-02-17T08:44:48.328Z,5.15
2023-02-17T08:47:15.218Z,4.57
2023-02-17T08:49:41.728Z,4.97
2023-02-17T08:52:08.584Z,4.72
2023-02-17T08:54:35.202Z,4.90
2023-02-17T08:57:01.864Z,4.22
2023-02-17T08:59:28.387Z,4.28
2023-02-17T09:01:56.439Z,4.30
2023-02-17T09:04:23.016Z,4.20
2023-02-17T09:06:51.870Z,3.88
2023-02-17T09:09:21.541Z,3.72
2023-02-17T09:11:48.718Z,4.20
2023-02-17T09:14:15.240Z,3.83
2023-02-17T09:16:41.884Z,4.13
2023-02-17T09:19:09.867Z,4.00
2023-02-17T09:21:36.606Z,4.13
2023-02-17T09:24:03.406Z,4.00
2023-02-17T09:26:30.147Z,4.03
2023-02-17T09:28:56.715Z,4.18
2023-02-17T09:31:25.437Z,4.45
2023-02-17T09:33:52.110Z,3.90
2023-02-17T09:36:22.435Z,4.15
2023-02-17T09:38:49.806Z,3.80
2023-02-17T09:41:18.900Z,2.65
2023-02-17T09:43:45.830Z,3.22
2023-02-17T09:46:18.473Z,2.50
2023-02-17T09:48:47.991Z,2.40
2023-02-17T09:51:22.992Z,1.80
2023-02-17T09:53:59.282Z,2.17
2023-02-17T09:56:33.786Z,1.80
2023-02-17T09:59:06.299Z,1.80
2023-02-17T10:01:34.326Z,1.85
2023-02-17T10:04:07.191Z,2.38
2023-02-17T10:06:38.125Z,1.55
2023-02-17T10:09:13.053Z,1.90
2023-02-17T10:11:44.508Z,1.90
2023-02-17T10:14:15.594Z,1.50
2023-02-17T10:16:48.599Z,1.50
2023-02-17T10:19:22.077Z,1.70
2023-02-17T10:21:58.779Z,1.23
2023-02-17T10:24:25.613Z,1.30
2023-02-17T10:27:07.816Z,1.52
2023-02-17T10:29:46.257Z,1.35
2023-02-17T10:32:21.932Z,1.48
2023-02-17T10:35:11.775Z,1.30
2023-02-17T10:37:46.277Z,1.20
2023-02-17T10:40:17.863Z,1.25
2023-02-17T10:42:45.836Z,1.08
2023-02-17T10:45:19.166Z,1.38
2023-02-17T10:47:46.113Z,1.20
2023-02-17T10:50:19.336Z,1.52
2023-02-17T10:52:48.705Z,2.47
2023-02-17T10:55:23.690Z,1.13
2023-02-17T10:57:57.251Z,1.00
2023-02-17T11:00:24.197Z,1.13
2023-02-17T11:02:51.481Z,1.05
2023-02-17T11:05:23.867Z,1.08
2023-02-17T11:07:56.202Z,0.75
2023-02-17T11:10:27.592Z,1.02
2023-02-17T11:12:55.104Z,0.80
2023-02-17T11:15:25.752Z,0.73
2023-02-17T11:17:54.329Z,0.70
2023-02-17T11:20:33.678Z,0.95
2023-02-17T11:23:05.881Z,0.70
2023-02-17T11:25:35.517Z,1.02
2023-02-17T11:28:04.541Z,1.08
2023-02-17T11:30:34.153Z,0.68
2023-02-17T11:33:12.589Z,0.95
2023-02-17T11:35:49.805Z,0.85
2023-02-17T11:38:20.786Z,1.30
2023-02-17T11:40:56.433Z,0.82
2023-02-17T11:43:23.238Z,1.73
2023-02-17T11:46:09.188Z,0.63
2023-02-17T11:48:55.823Z,0.60
2023-02-17T11:51:29.280Z,1.10
2023-02-17T11:54:07.316Z,2.55
2023-02-17T11:56:37.645Z,1.00
2023-02-17T11:59:35.787Z,0.60
2023-02-17T12:02:15.471Z,1.40
2023-02-17T12:04:52.798Z,0.60
2023-02-17T12:07:43.599Z,0.75
2023-02-17T12:10:19.559Z,1.77
2023-02-17T12:13:00.411Z,0.80
2023-02-17T12:15:51.928Z,1.73
2023-02-17T12:18:35.397Z,1.52
2023-02-17T12:21:09.048Z,1.00
2023-02-17T12:23:52.738Z,0.70
2023-02-17T12:26:29.882Z,0.63
2023-02-17T12:29:08.976Z,1.15
2023-02-17T12:31:52.343Z,2.58
2023-02-17T12:34:25.396Z,5.13
2023-02-17T12:36:53.758Z,1.50
2023-02-17T12:39:24.361Z,1.85
2023-02-17T12:41:57.387Z,2.90
2023-02-17T12:44:28.613Z,1.00
2023-02-17T12:46:59.761Z,1.08
2023-02-17T12:49:31.280Z,0.80
2023-02-17T12:52:03.753Z,0.65
2023-02-17T12:54:34.044Z,0.85
2023-02-17T12:57:13.415Z,0.70
2023-02-17T12:59:41.746Z,0.90
2023-02-17T13:02:11.436Z,1.17
2023-02-17T13:04:39.088Z,0.70
2023-02-17T13:07:21.303Z,0.98
2023-02-17T13:09:49.230Z,0.60
2023-02-17T13:12:40.478Z,0.60
2023-02-17T13:15:27.160Z,0.43
2023-02-17T13:17:55.731Z,0.40
2023-02-17T13:20:28.817Z,0.40
2023-02-17T13:23:07.726Z,0.60
2023-02-17T13:25:37.498Z,0.70
2023-02-17T13:28:18.910Z,0.52
2023-02-17T13:30:46.458Z,0.60
2023-02-17T13:33:28.216Z,0.57
2023-02-17T13:35:54.889Z,0.60
2023-02-17T13:38:27.213Z,0.70
2023-02-17T13:40:58.726Z,0.47
2023-02-17T13:45:58.821Z,0.70
2023-02-17T13:48:27.472Z,0.60
2023-02-17T13:50:55.999Z,0.70
2023-02-17T13:53:27.296Z,0.70
2023-02-17T13:55:56.199Z,0.57
2023-02-17T13:58:28.784Z,0.70
2023-02-17T14:00:56.977Z,0.60
2023-02-17T14:03:25.040Z,0.55
2023-02-17T14:05:53.838Z,0.60
2023-02-17T14:08:28.382Z,1.20
2023-02-17T14:10:55.907Z,0.50
2023-02-17T14:13:23.228Z,0.60
2023-02-17T14:15:53.800Z,0.63
2023-02-17T14:18:35.817Z,0.70
2023-02-17T14:21:06.639Z,0.52
2023-02-17T14:23:45.520Z,0.60
2023-02-17T14:26:15.503Z,0.80
2023-02-17T14:28:52.389Z,0.70
2023-02-17T14:31:20.917Z,0.80
2023-02-17T14:33:53.400Z,0.80
2023-02-17T14:36:27.784Z,0.77
2023-02-17T14:38:56.367Z,0.90
2023-02-17T14:41:22.926Z,0.90
2023-02-17T14:43:49.589Z,0.80
2023-02-17T14:46:16.181Z,1.00
2023-02-17T14:48:44.135Z,0.90
2023-02-17T14:51:13.237Z,0.80
2023-02-17T14:53:40.349Z,0.95
2023-02-17T14:56:10.418Z,1.20
2023-02-17T14:58:37.249Z,1.10
2023-02-17T15:01:04.164Z,1.45
2023-02-17T15:03:30.772Z,1.30
2023-02-17T15:06:00.365Z,1.23
2023-02-17T15:08:32.009Z,1.58
2023-02-17T15:10:59.200Z,1.10
2023-02-17T15:13:25.800Z,1.00
2023-02-17T15:15:52.790Z,1.00
2023-02-17T15:18:20.306Z,1.30
2023-02-17T15:20:49.388Z,1.10
2023-02-17T15:23:18.970Z,1.65
2023-02-17T15:25:46.235Z,1.30
2023-02-17T15:28:14.436Z,1.23
2023-02-17T15:30:41.359Z,1.48
2023-02-17T15:33:11.927Z,1.38
2023-02-17T15:35:40.012Z,1.30
2023-02-17T15:38:09.929Z,1.38
2023-02-17T15:40:38.464Z,1.35
2023-02-17T15:43:05.607Z,1.60
2023-02-17T15:45:33.803Z,1.40
2023-02-17T15:48:04.102Z,1.40
2023-02-17T15:50:30.880Z,1.52
2023-02-17T15:52:57.579Z,1.63
2023-02-17T15:55:24.280Z,1.90
2023-02-17T15:57:55.703Z,1.25
2023-02-17T16:00:24.059Z,2.03
2023-02-17T16:02:51.192Z,1.85
2023-02-17T16:05:22.795Z,2.00
2023-02-17T16:07:49.608Z,1.80
2023-02-17T16:10:18.012Z,1.55
2023-02-17T16:12:45.643Z,1.80
2023-02-17T16:15:16.377Z,1.63
2023-02-17T16:17:42.992Z,1.33
2023-02-17T16:20:18.284Z,1.52
2023-02-17T16:22:45.459Z,1.58
2023-02-17T16:25:12.403Z,1.48
2023-02-17T16:27:39.640Z,1.65
2023-02-17T16:30:19.993Z,2.22
2023-02-17T16:32:47.796Z,2.03
2023-02-17T16:35:16.644Z,1.88
2023-02-17T16:37:53.604Z,2.17
2023-02-17T16:40:25.964Z,2.00
2023-02-17T16:43:00.489Z,2.10
2023-02-17T16:45:34.851Z,2.00
2023-02-17T16:48:10.535Z,2.20
2023-02-17T16:50:39.016Z,2.20
2023-02-17T16:53:09.216Z,2.20
2023-02-17T16:55:37.961Z,2.10
2023-02-17T16:58:14.654Z,3.78
2023-02-17T17:00:47.211Z,2.20
2023-02-17T17:03:15.081Z,1.73
2023-02-17T17:05:42.925Z,1.63
2023-02-17T17:08:12.457Z,2.35
2023-02-17T17:10:41.965Z,1.40
2023-02-17T17:13:12.696Z,1.67
2023-02-17T17:15:45.118Z,1.67
2023-02-17T17:18:20.629Z,1.90
2023-02-17T17:20:47.884Z,1.60
2023-02-17T17:23:18.658Z,1.70
2023-02-17T17:25:59.171Z,1.73
2023-02-17T17:28:27.064Z,1.80
2023-02-17T17:30:55.979Z,1.98
2023-02-17T17:33:24.517Z,1.77
2023-02-17T17:35:53.345Z,2.22
2023-02-17T17:38:21.313Z,2.05
2023-02-17T17:40:52.740Z,1.98
2023-02-17T17:43:24.783Z,2.00
2023-02-17T17:45:54.493Z,1.90
2023-02-17T17:48:23.028Z,2.40
2023-02-17T17:50:51.032Z,2.20
2023-02-17T17:53:19.698Z,2.17
2023-02-17T17:55:49.270Z,1.75
2023-02-17T17:58:16.893Z,2.00
2023-02-17T18:00:44.696Z,1.80
2023-02-17T18:03:13.006Z,1.80
2023-02-17T18:05:42.003Z,1.98
2023-02-17T18:08:11.141Z,1.85
2023-02-17T18:10:42.997Z,1.88
2023-02-17T18:15:40.540Z,2.28
2023-02-17T18:18:09.165Z,2.50
2023-02-17T18:20:40.471Z,2.60
2023-02-17T18:23:11.039Z,2.33
2023-02-17T18:25:38.733Z,2.00
2023-02-17T18:28:06.058Z,2.10
2023-02-17T18:30:34.430Z,1.52
2023-02-17T18:33:04.563Z,2.22
2023-02-17T18:35:35.261Z,1.83
2023-02-17T18:38:03.205Z,2.03
2023-02-17T18:40:32.225Z,2.10
2023-02-17T18:43:00.342Z,1.80
2023-02-17T18:45:29.305Z,1.60
2023-02-17T18:47:55.904Z,1.65
2023-02-17T18:50:22.590Z,1.80
2023-02-17T18:52:49.269Z,1.90
2023-02-17T18:55:15.869Z,1.88
2023-02-17T18:57:45.249Z,1.88
2023-02-17T19:00:14.221Z,2.00
2023-02-17T19:02:41.257Z,1.92
2023-02-17T19:05:09.990Z,2.10
2023-02-17T19:07:37.400Z,2.08
2023-02-17T19:10:05.184Z,1.95
2023-02-17T19:12:31.922Z,1.77
2023-02-17T19:15:01.450Z,1.95
2023-02-17T19:17:28.218Z,1.58
2023-02-17T19:19:55.549Z,1.90
2023-02-17T19:22:22.536Z,2.05
2023-02-17T19:24:51.380Z,2.10
2023-02-17T19:27:18.554Z,2.00
2023-02-17T19:29:45.077Z,2.10
2023-02-17T19:32:13.313Z,1.88
2023-02-17T19:34:39.824Z,2.17
2023-02-17T19:37:06.406Z,2.20
2023-02-17T19:39:35.296Z,2.20
2023-02-17T19:42:01.859Z,2.28
2023-02-17T19:44:29.292Z,2.33
2023-02-17T19:46:55.803Z,2.20
2023-02-17T19:49:23.656Z,2.20
2023-02-17T19:51:50.237Z,2.45
2023-02-17T19:54:16.942Z,2.83
2023-02-17T19:56:43.537Z,2.95
2023-02-17T19:59:10.087Z,2.85
2023-02-17T20:01:36.687Z,2.50
2023-02-17T20:04:04.934Z,2.67
2023-02-17T20:06:37.550Z,2.83
2023-02-17T20:09:09.225Z,2.80
2023-02-17T20:11:35.877Z,2.42
2023-02-17T20:14:02.833Z,3.40
2023-02-17T20:16:29.797Z,2.70
2023-02-17T20:18:56.592Z,3.15
2023-02-17T20:21:25.056Z,2.90
2023-02-17T20:23:52.928Z,3.40
2023-02-17T20:26:21.770Z,3.15
2023-02-17T20:28:49.495Z,4.10
2023-02-17T20:31:16.582Z,3.50
2023-02-17T20:33:44.501Z,3.00
2023-02-17T20:36:11.427Z,3.25
2023-02-17T20:38:38.177Z,3.25
2023-02-17T20:41:07.827Z,3.33
2023-02-17T20:43:35.399Z,2.95
2023-02-17T20:46:02.026Z,3.47
2023-02-17T20:48:28.510Z,3.15
2023-02-17T20:50:55.571Z,3.13
2023-02-17T20:53:22.831Z,3.38
2023-02-17T20:55:49.881Z,3.63
2023-02-17T20:58:18.148Z,3.30
2023-02-17T21:00:44.773Z,3.20
2023-02-17T21:03:11.367Z,3.15
2023-02-17T21:05:38.211Z,3.30
2023-02-17T21:08:04.939Z,3.50
2023-02-17T21:10:32.815Z,3.30
2023-02-17T21:12:59.352Z,3.08
2023-02-17T21:15:27.567Z,3.05
2023-02-17T21:17:54.110Z,2.70
2023-02-17T21:20:21.732Z,3.17
2023-02-17T21:22:48.528Z,2.83
2023-02-17T21:25:15.058Z,3.53
2023-02-17T21:27:41.643Z,3.17
2023-02-17T21:30:11.143Z,3.15
2023-02-17T21:32:39.860Z,3.17
2023-02-17T21:35:09.096Z,3.92
2023-02-17T21:37:35.679Z,3.40
2023-02-17T21:40:02.303Z,3.20
2023-02-17T21:42:28.796Z,2.90
2023-02-17T21:44:55.480Z,2.92
2023-02-17T21:47:22.190Z,3.78
2023-02-17T21:49:53.008Z,2.67
2023-02-17T21:52:19.589Z,3.37
2023-02-17T21:54:46.083Z,2.63
2023-02-17T21:57:12.672Z,5.00
2023-02-17T21:59:39.183Z,3.80
2023-02-17T22:02:05.731Z,4.95
2023-02-17T22:04:32.198Z,3.53
2023-02-17T22:07:00.103Z,4.03
2023-02-17T22:09:26.575Z,2.60
2023-02-17T22:11:53.096Z,2.90
2023-02-17T22:14:20.359Z,2.63
2023-02-17T22:16:48.459Z,2.58
2023-02-17T22:19:17.758Z,2.42
2023-02-17T22:21:45.788Z,2.95
2023-02-17T22:24:14.157Z,2.60
2023-02-17T22:26:41.426Z,2.30
2023-02-17T22:29:08.261Z,2.88
2023-02-17T22:31:35.361Z,2.63
2023-02-17T22:34:04.879Z,2.47
2023-02-17T22:36:32.955Z,2.67
2023-02-17T22:38:59.479Z,3.08
2023-02-17T22:41:27.749Z,2.50
2023-02-17T22:43:54.964Z,2.67
2023-02-17T22:46:23.436Z,2.60
2023-02-17T22:48:51.571Z,2.97
2023-02-17T22:51:21.181Z,3.47
2023-02-17T22:53:47.839Z,3.13
2023-02-17T22:56:15.243Z,2.70
2023-02-17T22:58:43.143Z,3.22
2023-02-17T23:01:11.585Z,2.92
2023-02-17T23:03:38.724Z,2.95
2023-02-17T23:06:07.940Z,3.05
2023-02-17T23:08:34.942Z,2.90
2023-02-17T23:11:04.548Z,3.45
2023-02-17T23:13:31.151Z,2.92
2023-02-17T23:15:59.008Z,2.50
2023-02-17T23:18:25.844Z,2.72
2023-02-17T23:20:52.381Z,4.70
2023-02-17T23:23:19.561Z,4.25
2023-02-17T23:25:49.314Z,4.25
2023-02-17T23:28:16.166Z,3.13
2023-02-17T23:30:42.787Z,4.07
2023-02-17T23:33:10.828Z,3.17
2023-02-17T23:35:39.431Z,2.95
2023-02-17T23:38:05.927Z,2.90
2023-02-17T23:40:32.469Z,3.25
2023-02-17T23:42:59.001Z,2.95
2023-02-17T23:45:25.640Z,3.38
2023-02-17T23:47:52.160Z,3.10
2023-02-17T23:50:20.289Z,2.83
2023-02-17T23:52:46.828Z,2.92
2023-02-17T23:55:13.377Z,2.80
2023-02-17T23:57:39.955Z,2.65
